WZZ55 EGKK-EPKK
Flight info
| Callsign | WZZ55 |
|---|---|
| Flight time | N/A |
| Altitude | 35000 |
| Route | MIMFO Y312 DVR UL9 KONAN UL607 FERDI DCT MATUG DCT GUBAX DCT KOMIB L984 LONLI DCT ABERU L984 OKG DCT PADKA |
| Aircraft | A21N/M-SDE2E3FGHIRWXY/LB1 |
Departure
| Time | 2026-04-17 11:49 |
|---|---|
| Airport | London Gatwick Airport (EGKK) |
Arrival
| Time | N/A |
|---|---|
| Airport | Kraków John Paul II International Airport (EPKK) |
| Time | Latitude | Longitude | Altitude | Speed | Heading |
|---|---|---|---|---|---|
| 2026-04-17 11:14 | 51.15526 | -0.16594 | 209 ft | 0 kts | 348° |
| 2026-04-17 11:41 | 51.15503 | -0.16586 | 211 ft | 4 kts | 346° |
| 2026-04-17 11:41 | 51.15478 | -0.16573 | 216 ft | 4 kts | 329° |
| 2026-04-17 11:41 | 51.15464 | -0.16549 | 219 ft | 4 kts | 267° |
| 2026-04-17 11:42 | 51.15464 | -0.16542 | 218 ft | 0 kts | 258° |
| 2026-04-17 11:45 | 51.15464 | -0.16545 | 218 ft | 1 kts | 258° |
| 2026-04-17 11:45 | 51.15460 | -0.16571 | 215 ft | 4 kts | 258° |
| 2026-04-17 11:45 | 51.15452 | -0.16635 | 212 ft | 7 kts | 258° |
| 2026-04-17 11:46 | 51.15427 | -0.16710 | 216 ft | 9 kts | 203° |
| 2026-04-17 11:46 | 51.15360 | -0.16699 | 209 ft | 11 kts | 164° |
| 2026-04-17 11:46 | 51.15308 | -0.16673 | 214 ft | 5 kts | 166° |
| 2026-04-17 11:46 | 51.15274 | -0.16661 | 211 ft | 0 kts | 168° |
| 2026-04-17 11:48 | 51.15237 | -0.16648 | 217 ft | 8 kts | 168° |
| 2026-04-17 11:48 | 51.15174 | -0.16634 | 209 ft | 10 kts | 192° |
| 2026-04-17 11:48 | 51.15132 | -0.16720 | 208 ft | 11 kts | 260° |
| 2026-04-17 11:48 | 51.15111 | -0.16878 | 212 ft | 31 kts | 258° |
| 2026-04-17 11:49 | 51.14995 | -0.17605 | 214 ft | 100 kts | 258° |
| 2026-04-17 11:49 | 51.14818 | -0.18995 | 213 ft | 153 kts | 256° |
| 2026-04-17 11:49 | 51.14599 | -0.20670 | 545 ft | 167 kts | 253° |
| 2026-04-17 11:49 | 51.14337 | -0.22528 | 1129 ft | 177 kts | 253° |
| 2026-04-17 11:50 | 51.14048 | -0.24495 | 1713 ft | 192 kts | 253° |
| 2026-04-17 11:50 | 51.13746 | -0.26684 | 2319 ft | 211 kts | 256° |
| 2026-04-17 11:50 | 51.13578 | -0.28815 | 3047 ft | 215 kts | 271° |
| 2026-04-17 11:50 | 51.14079 | -0.31065 | 3635 ft | 223 kts | 301° |
| 2026-04-17 11:51 | 51.15317 | -0.32661 | 4260 ft | 240 kts | 333° |
| 2026-04-17 11:51 | 51.17001 | -0.32990 | 5139 ft | 252 kts | 7° |
| 2026-04-17 11:51 | 51.18582 | -0.31771 | 6014 ft | 258 kts | 43° |
| 2026-04-17 11:51 | 51.19514 | -0.29360 | 6833 ft | 259 kts | 76° |
| 2026-04-17 11:52 | 51.19840 | -0.26530 | 7592 ft | 262 kts | 83° |
| 2026-04-17 11:52 | 51.20100 | -0.23636 | 8337 ft | 267 kts | 83° |
| 2026-04-17 11:52 | 51.20398 | -0.20685 | 9093 ft | 272 kts | 82° |
| 2026-04-17 11:52 | 51.20742 | -0.17641 | 9623 ft | 288 kts | 81° |
| 2026-04-17 11:53 | 51.21132 | -0.14405 | 10089 ft | 305 kts | 80° |
| 2026-04-17 11:53 | 51.21556 | -0.11049 | 10546 ft | 320 kts | 80° |
| 2026-04-17 11:53 | 51.22016 | -0.07467 | 10891 ft | 340 kts | 80° |
| 2026-04-17 11:53 | 51.22512 | -0.03660 | 11201 ft | 360 kts | 79° |
| 2026-04-17 11:54 | 51.23035 | 0.00354 | 11343 ft | 379 kts | 79° |
| 2026-04-17 11:54 | 51.23583 | 0.04573 | 11584 ft | 397 kts | 79° |
| 2026-04-17 11:54 | 51.24147 | 0.08960 | 12030 ft | 407 kts | 80° |
| 2026-04-17 11:54 | 51.24722 | 0.13409 | 12649 ft | 412 kts | 80° |
| 2026-04-17 11:55 | 51.25280 | 0.17918 | 13268 ft | 415 kts | 83° |
| 2026-04-17 11:55 | 51.25357 | 0.22520 | 13819 ft | 415 kts | 98° |
| 2026-04-17 11:55 | 51.25007 | 0.27097 | 14347 ft | 418 kts | 101° |
| 2026-04-17 11:55 | 51.24689 | 0.30945 | 14787 ft | 420 kts | 101° |
| 2026-04-17 11:56 | 51.24315 | 0.35607 | 15338 ft | 424 kts | 100° |
| 2026-04-17 11:56 | 51.23951 | 0.40292 | 15924 ft | 428 kts | 100° |
| 2026-04-17 11:56 | 51.23588 | 0.45036 | 16526 ft | 432 kts | 100° |
| 2026-04-17 11:56 | 51.23222 | 0.49802 | 17105 ft | 435 kts | 100° |
| 2026-04-17 11:57 | 51.22853 | 0.54613 | 17679 ft | 439 kts | 100° |
| 2026-04-17 11:57 | 51.22478 | 0.59454 | 18267 ft | 443 kts | 100° |
| 2026-04-17 11:57 | 51.22096 | 0.64292 | 18803 ft | 446 kts | 100° |
| 2026-04-17 11:57 | 51.21702 | 0.69287 | 19356 ft | 450 kts | 100° |
| 2026-04-17 11:58 | 51.21314 | 0.74220 | 19890 ft | 453 kts | 100° |
| 2026-04-17 11:58 | 51.20915 | 0.79238 | 20427 ft | 457 kts | 101° |
| 2026-04-17 11:58 | 51.20509 | 0.84285 | 20960 ft | 460 kts | 101° |
| 2026-04-17 11:58 | 51.20100 | 0.89368 | 21490 ft | 464 kts | 101° |
| 2026-04-17 11:59 | 51.19684 | 0.94492 | 22077 ft | 467 kts | 101° |
| 2026-04-17 11:59 | 51.19268 | 0.99635 | 22546 ft | 470 kts | 100° |
| 2026-04-17 11:59 | 51.18855 | 1.04730 | 23020 ft | 473 kts | 101° |
| 2026-04-17 11:59 | 51.18425 | 1.09944 | 23492 ft | 476 kts | 101° |
| 2026-04-17 12:00 | 51.17990 | 1.15192 | 23917 ft | 479 kts | 101° |
| 2026-04-17 12:00 | 51.17552 | 1.20465 | 24293 ft | 482 kts | 101° |
| 2026-04-17 12:00 | 51.17106 | 1.25786 | 24677 ft | 485 kts | 101° |
| 2026-04-17 12:00 | 51.16654 | 1.31136 | 25057 ft | 488 kts | 101° |
| 2026-04-17 12:01 | 51.16233 | 1.36521 | 25443 ft | 492 kts | 98° |
| 2026-04-17 12:01 | 51.15967 | 1.41976 | 25805 ft | 495 kts | 97° |
| 2026-04-17 12:01 | 51.15700 | 1.47456 | 26143 ft | 498 kts | 97° |
| 2026-04-17 12:01 | 51.15432 | 1.52957 | 26571 ft | 498 kts | 97° |
| 2026-04-17 12:02 | 51.15163 | 1.58458 | 27059 ft | 497 kts | 97° |
| 2026-04-17 12:02 | 51.14892 | 1.63944 | 27530 ft | 497 kts | 97° |
| 2026-04-17 12:02 | 51.14621 | 1.69319 | 27992 ft | 496 kts | 97° |
| 2026-04-17 12:02 | 51.14350 | 1.74787 | 28454 ft | 495 kts | 97° |
| 2026-04-17 12:03 | 51.14084 | 1.80266 | 28913 ft | 495 kts | 97° |
| 2026-04-17 12:03 | 51.13810 | 1.85720 | 29364 ft | 494 kts | 97° |
| 2026-04-17 12:03 | 51.13533 | 1.91114 | 29785 ft | 493 kts | 96° |
| 2026-04-17 12:03 | 51.13249 | 1.96547 | 30256 ft | 492 kts | 96° |
| 2026-04-17 12:04 | 51.12958 | 2.01950 | 30627 ft | 491 kts | 96° |
| 2026-04-17 12:04 | 51.12672 | 2.07365 | 30984 ft | 490 kts | 96° |
| 2026-04-17 12:04 | 51.12388 | 2.12763 | 31343 ft | 489 kts | 96° |
| 2026-04-17 12:04 | 51.12096 | 2.18154 | 31682 ft | 488 kts | 96° |
| 2026-04-17 12:05 | 51.11805 | 2.23525 | 32016 ft | 487 kts | 96° |
| 2026-04-17 12:05 | 51.11514 | 2.28903 | 32336 ft | 487 kts | 96° |
| 2026-04-17 12:05 | 51.11216 | 2.34265 | 32652 ft | 486 kts | 96° |
| 2026-04-17 12:05 | 51.10918 | 2.39622 | 32947 ft | 485 kts | 96° |
| 2026-04-17 12:06 | 51.10616 | 2.44971 | 33240 ft | 485 kts | 96° |
| 2026-04-17 12:06 | 51.10314 | 2.50313 | 33537 ft | 484 kts | 96° |
| 2026-04-17 12:06 | 51.10014 | 2.55605 | 33822 ft | 483 kts | 96° |
| 2026-04-17 12:06 | 51.09710 | 2.60911 | 34098 ft | 483 kts | 96° |
| 2026-04-17 12:07 | 51.09253 | 2.66179 | 34331 ft | 481 kts | 104° |
| 2026-04-17 12:07 | 51.08388 | 2.71312 | 34547 ft | 480 kts | 107° |
| 2026-04-17 12:07 | 51.07451 | 2.76425 | 34758 ft | 480 kts | 108° |
| 2026-04-17 12:07 | 51.06525 | 2.81447 | 34971 ft | 479 kts | 107° |
| 2026-04-17 12:08 | 51.05596 | 2.86532 | 35165 ft | 479 kts | 107° |
| 2026-04-17 12:08 | 51.04668 | 2.91627 | 35261 ft | 480 kts | 107° |
| 2026-04-17 12:08 | 51.02802 | 3.01814 | 35242 ft | 480 kts | 107° |
| 2026-04-17 12:09 | 51.00933 | 3.11983 | 35229 ft | 480 kts | 107° |
| 2026-04-17 12:09 | 50.99353 | 3.20484 | 35224 ft | 480 kts | 107° |
| 2026-04-17 12:10 | 50.97466 | 3.30644 | 35213 ft | 480 kts | 107° |
| 2026-04-17 12:10 | 50.95586 | 3.40729 | 35220 ft | 480 kts | 107° |
| 2026-04-17 12:11 | 50.93677 | 3.50862 | 35222 ft | 480 kts | 107° |
| 2026-04-17 12:12 | 50.90860 | 3.66054 | 35230 ft | 480 kts | 105° |
| 2026-04-17 12:12 | 50.89134 | 3.76282 | 35239 ft | 480 kts | 105° |
| 2026-04-17 12:13 | 50.87398 | 3.86483 | 35239 ft | 480 kts | 105° |
| 2026-04-17 12:13 | 50.85657 | 3.96700 | 35241 ft | 480 kts | 105° |
| 2026-04-17 12:14 | 50.83913 | 4.06851 | 35244 ft | 480 kts | 105° |
| 2026-04-17 12:14 | 50.82153 | 4.17052 | 35253 ft | 480 kts | 105° |
| 2026-04-17 12:15 | 50.80381 | 4.27231 | 35258 ft | 480 kts | 105° |
| 2026-04-17 12:15 | 50.78609 | 4.37388 | 35255 ft | 478 kts | 105° |
| 2026-04-17 12:16 | 50.76846 | 4.47430 | 35253 ft | 478 kts | 105° |
| 2026-04-17 12:16 | 50.75055 | 4.57545 | 35255 ft | 478 kts | 105° |
| 2026-04-17 12:17 | 50.73259 | 4.67646 | 35260 ft | 478 kts | 105° |
| 2026-04-17 12:17 | 50.71462 | 4.77733 | 35250 ft | 478 kts | 105° |